Time;durP1;ratioP1;P1;durP2;ratioP2;P2;SDS_P1;SDS_P2;PMS_P1;PMS_P2;Temp;Humidity;BMP_temperature;BMP_pressure;BME280_temperature;BME280_humidity;BME280_pressure;Samples;Min_cycle;Max_cycle;Signal;HPM_P1;HPM_P2
2022/04/22 00:01:12;;;;;;;19.55;15.13;;;7.20;99.90;;;;;;5099850;28;20061;-91
2022/04/22 00:03:38;;;;;;;19.75;14.70;;;7.20;99.90;;;;;;5100020;28;20028;-91
2022/04/22 00:06:04;;;;;;;19.25;15.07;;;7.20;99.90;;;;;;5099977;28;20034;-91
2022/04/22 00:08:30;;;;;;;17.00;13.85;;;7.20;99.90;;;;;;5118194;28;20108;-91
2022/04/22 00:13:41;;;;;;;18.73;14.38;;;7.20;99.90;;;;;;5118247;28;20030;-91
2022/04/22 00:16:07;;;;;;;19.13;14.73;;;7.20;99.90;;;;;;5099746;28;20030;-91
2022/04/22 00:18:33;;;;;;;19.05;14.45;;;7.20;99.90;;;;;;5099703;28;20024;-91
2022/04/22 00:20:59;;;;;;;19.02;14.15;;;7.10;99.90;;;;;;5099830;28;20036;-91
2022/04/22 00:23:26;;;;;;;16.45;12.75;;;7.10;99.90;;;;;;5099510;28;20383;-91
2022/04/22 00:25:53;;;;;;;18.60;14.43;;;7.10;99.90;;;;;;5099455;28;20024;-91
2022/04/22 00:28:19;;;;;;;18.83;14.77;;;7.00;99.90;;;;;;5099382;28;20108;-91
2022/04/22 00:30:45;;;;;;;19.77;14.15;;;7.00;99.90;;;;;;5099392;28;20119;-91
2022/04/22 00:33:11;;;;;;;18.13;14.05;;;7.00;99.90;;;;;;5099507;28;20024;-91
2022/04/22 00:35:37;;;;;;;22.08;16.75;;;7.00;99.90;;;;;;5117545;28;20065;-91
2022/04/22 00:38:03;;;;;;;22.42;15.63;;;7.00;99.90;;;;;;5117610;28;20026;-91
2022/04/22 00:40:28;;;;;;;20.48;16.23;;;7.00;99.90;;;;;;5099183;28;20031;-91
2022/04/22 00:42:54;;;;;;;20.30;15.27;;;7.00;99.90;;;;;;5117245;28;20027;-91
2022/04/22 00:45:20;;;;;;;20.88;15.55;;;6.90;99.90;;;;;;5099101;28;20122;-91
2022/04/22 00:47:47;;;;;;;21.13;16.20;;;6.90;99.90;;;;;;5098393;28;20028;-91
2022/04/22 00:50:13;;;;;;;23.25;16.83;;;6.90;99.90;;;;;;5098852;28;20028;-90
2022/04/22 00:52:39;;;;;;;19.55;14.98;;;6.90;99.90;;;;;;5098930;28;20094;-91
2022/04/22 00:55:06;;;;;;;22.38;15.57;;;6.90;99.90;;;;;;5098832;28;20023;-91
2022/04/22 00:57:33;;;;;;;21.92;16.67;;;6.90;99.90;;;;;;5098977;28;20033;-91
2022/04/22 00:59:59;;;;;;;23.63;17.05;;;6.90;99.90;;;;;;5098948;28;20028;-91
2022/04/22 01:02:25;;;;;;;26.80;17.42;;;6.90;99.90;;;;;;5117072;28;20019;-91
2022/04/22 01:10:19;;;;;;;24.90;17.35;;;6.80;99.90;;;;;;5117019;28;20034;-91
2022/04/22 01:12:45;;;;;;;21.70;15.55;;;6.80;99.90;;;;;;5098588;28;20103;-91
2022/04/22 01:15:10;;;;;;;26.27;18.08;;;6.80;99.90;;;;;;5098513;28;20065;-91
2022/04/22 01:17:37;;;;;;;23.55;17.10;;;6.90;99.90;;;;;;5098721;28;20024;-91
2022/04/22 01:20:04;;;;;;;20.83;15.85;;;6.90;99.90;;;;;;5098656;28;20023;-91
2022/04/22 01:22:29;;;;;;;21.48;16.58;;;6.90;99.90;;;;;;5098476;28;20030;-91
2022/04/22 01:25:01;;;;;;;23.83;16.60;;;6.90;99.90;;;;;;5098319;28;20532;-91
2022/04/22 01:27:31;;;;;;;22.30;16.80;;;7.00;99.90;;;;;;5098390;28;20020;-91
2022/04/22 01:29:58;;;;;;;25.65;17.85;;;7.00;99.90;;;;;;5115987;28;20489;-91
2022/04/22 01:32:26;;;;;;;21.85;16.08;;;7.00;99.90;;;;;;5098295;28;20028;-91
2022/04/22 01:34:51;;;;;;;20.38;15.55;;;7.10;99.90;;;;;;5098392;28;20027;-91
2022/04/22 01:37:17;;;;;;;21.27;16.05;;;7.10;99.90;;;;;;5098351;28;20378;-91
2022/04/22 01:39:43;;;;;;;24.45;16.65;;;7.10;99.90;;;;;;5098244;28;20047;-91
2022/04/22 01:42:09;;;;;;;20.83;16.33;;;7.10;99.90;;;;;;5098163;28;20027;-91
2022/04/22 01:44:37;;;;;;;20.52;15.60;;;7.20;99.90;;;;;;5097925;28;20492;-91
2022/04/22 01:47:06;;;;;;;20.17;16.02;;;7.20;99.90;;;;;;5098013;28;20385;-91
2022/04/22 01:49:32;;;;;;;23.30;16.38;;;7.20;99.90;;;;;;5098076;28;20405;-91
2022/04/22 01:51:57;;;;;;;23.27;17.25;;;7.20;99.90;;;;;;5115911;28;20024;-91
2022/04/22 01:54:24;;;;;;;23.02;16.95;;;7.20;99.90;;;;;;5097882;28;20058;-91
2022/04/22 01:56:50;;;;;;;23.38;17.10;;;7.20;99.90;;;;;;5097977;28;20084;-91
2022/04/22 01:59:15;;;;;;;21.60;16.20;;;7.20;99.90;;;;;;5097495;28;20023;-91
2022/04/22 02:01:41;;;;;;;25.90;17.38;;;7.20;99.90;;;;;;5115894;28;20111;-91
2022/04/22 02:04:07;;;;;;;23.30;17.55;;;7.20;99.90;;;;;;5098128;28;20055;-91
2022/04/22 02:06:32;;;;;;;22.48;17.52;;;7.10;99.90;;;;;;5097817;28;20054;-91
2022/04/22 02:08:58;;;;;;;25.98;19.00;;;7.10;99.90;;;;;;5097434;28;20055;-90
2022/04/22 02:11:24;;;;;;;27.70;19.55;;;7.10;99.90;;;;;;5115722;28;20497;-90
2022/04/22 02:13:50;;;;;;;25.02;18.75;;;7.10;99.90;;;;;;5097585;28;20019;-91
2022/04/22 02:16:15;;;;;;;26.88;19.52;;;7.00;99.90;;;;;;5097867;28;20386;-91
2022/04/22 02:18:42;;;;;;;25.80;19.38;;;7.00;99.90;;;;;;5097375;28;20112;-91
2022/04/22 02:21:09;;;;;;;32.05;21.30;;;7.00;99.90;;;;;;5097500;28;20111;-91
2022/04/22 02:23:35;;;;;;;30.85;21.33;;;7.00;99.90;;;;;;5097205;28;20024;-91
2022/04/22 02:26:02;;;;;;;32.92;22.65;;;7.00;99.90;;;;;;5097157;28;20114;-91
2022/04/22 02:28:34;;;;;;;29.40;21.80;;;6.90;99.90;;;;;;5097071;28;20047;-91
2022/04/22 02:31:05;;;;;;;31.83;22.88;;;6.90;99.90;;;;;;5097043;28;20371;-91
2022/04/22 02:33:32;;;;;;;33.35;23.45;;;7.00;99.90;;;;;;5097315;28;20020;-91
2022/04/22 02:35:59;;;;;;;31.33;23.33;;;6.90;99.90;;;;;;5097309;28;20026;-91
2022/04/22 02:38:26;;;;;;;35.53;24.83;;;6.90;99.90;;;;;;5097082;28;20382;-90
2022/04/22 02:46:20;;;;;;;36.47;25.85;;;6.90;99.90;;;;;;5115349;28;20092;-91
2022/04/22 02:48:46;;;;;;;36.70;25.95;;;6.90;99.90;;;;;;5096673;28;20023;-91
2022/04/22 02:51:12;;;;;;;37.70;25.77;;;6.90;99.90;;;;;;5114927;28;20028;-91
2022/04/22 02:53:37;;;;;;;42.95;27.85;;;6.90;99.90;;;;;;5097005;28;20110;-92
2022/04/22 02:56:06;;;;;;;39.70;24.42;;;6.90;99.90;;;;;;5096830;28;20019;-91
2022/04/22 02:58:32;;;;;;;36.13;24.33;;;6.90;99.90;;;;;;5096784;28;20103;-91
2022/04/22 03:00:58;;;;;;;37.92;25.23;;;6.90;99.90;;;;;;5096990;28;20047;-91
2022/04/22 03:03:23;;;;;;;35.25;24.92;;;6.90;99.90;;;;;;5096839;28;20031;-91
2022/04/22 03:05:51;;;;;;;38.10;25.52;;;6.90;99.90;;;;;;5096877;28;20019;-91
2022/04/22 03:08:16;;;;;;;36.30;25.60;;;6.90;99.90;;;;;;5096667;28;20024;-91
2022/04/22 03:10:42;;;;;;;40.47;25.20;;;6.90;99.90;;;;;;5116294;28;20367;-91
2022/04/22 03:13:08;;;;;;;41.15;25.40;;;7.00;99.90;;;;;;5101078;28;20035;-91
2022/04/22 03:15:35;;;;;;;36.67;24.63;;;6.90;99.90;;;;;;5119104;28;20031;-91
2022/04/22 03:18:01;;;;;;;40.33;24.90;;;6.90;99.90;;;;;;5100928;28;20156;-90
2022/04/22 03:20:27;;;;;;;35.75;24.40;;;6.90;99.90;;;;;;5100808;28;20110;-91
2022/04/22 03:22:52;;;;;;;34.92;24.20;;;6.90;99.90;;;;;;5100772;28;20035;-90
2022/04/22 03:25:20;;;;;;;32.13;22.25;;;7.00;99.90;;;;;;5100481;28;20378;-91
2022/04/22 03:27:46;;;;;;;33.83;23.98;;;7.00;99.90;;;;;;5100354;28;20385;-90
2022/04/22 03:30:12;;;;;;;37.55;25.13;;;7.00;99.90;;;;;;5100679;28;20031;-90
2022/04/22 03:32:38;;;;;;;35.70;25.58;;;7.00;99.90;;;;;;5118850;28;20038;-91
2022/04/22 03:35:04;;;;;;;33.08;23.67;;;7.00;99.90;;;;;;5100466;28;20015;-91
2022/04/22 03:37:31;;;;;;;35.47;25.08;;;7.00;99.90;;;;;;5100415;28;20432;-91
2022/04/22 03:39:57;;;;;;;38.78;25.77;;;7.00;99.90;;;;;;5100278;28;20020;-91
2022/04/22 03:42:23;;;;;;;37.35;25.17;;;7.00;99.90;;;;;;5100328;28;20046;-91
2022/04/22 03:44:48;;;;;;;35.00;24.63;;;7.10;99.90;;;;;;5100278;28;20054;-89
2022/04/22 03:47:14;;;;;;;36.10;25.27;;;7.10;99.90;;;;;;5100220;28;20027;-90
2022/04/22 03:49:40;;;;;;;35.85;26.27;;;7.10;99.90;;;;;;5100338;28;20118;-92
2022/04/22 03:52:06;;;;;;;38.80;27.30;;;7.10;99.90;;;;;;5100368;28;20034;-91
2022/04/22 03:54:32;;;;;;;40.40;27.20;;;7.10;99.90;;;;;;5118141;28;20649;-91
2022/04/22 03:59:42;;;;;;;40.20;27.52;;;7.10;99.90;;;;;;5118628;28;20039;-91
2022/04/22 04:02:07;;;;;;;32.95;24.77;;;7.20;99.90;;;;;;5100250;28;20024;-91
2022/04/22 04:04:33;;;;;;;38.42;26.00;;;7.20;99.90;;;;;;5118281;28;20027;-91
2022/04/22 04:06:59;;;;;;;37.13;24.48;;;7.20;99.90;;;;;;5099756;28;20110;-91
2022/04/22 04:17:38;;;;;;;37.85;25.02;;;7.30;99.90;;;;;;5117903;28;20031;-90
2022/04/22 04:25:33;;;;;;;37.38;26.27;;;7.30;99.90;;;;;;5117899;28;20027;-91
2022/04/22 04:27:59;;;;;;;45.30;27.05;;;7.30;99.90;;;;;;5117448;28;20394;-90
2022/04/22 04:30:25;;;;;;;33.35;24.85;;;7.30;99.90;;;;;;5099613;28;20027;-90
2022/04/22 04:32:51;;;;;;;36.10;26.02;;;7.30;99.90;;;;;;5099017;28;20024;-90
2022/04/22 04:35:17;;;;;;;37.33;26.85;;;7.30;99.90;;;;;;5099295;28;20462;-91
2022/04/22 04:37:43;;;;;;;35.25;25.17;;;7.30;99.90;;;;;;5099313;28;20030;-90
2022/04/22 04:40:09;;;;;;;34.75;25.00;;;7.40;99.90;;;;;;5099354;28;20092;-91
2022/04/22 04:42:35;;;;;;;39.13;27.13;;;7.30;99.90;;;;;;5099087;28;20485;-90
2022/04/22 04:45:01;;;;;;;33.92;25.02;;;7.40;99.90;;;;;;5099229;28;20023;-90
2022/04/22 04:47:27;;;;;;;40.97;26.85;;;7.40;99.90;;;;;;5099275;28;20431;-90
2022/04/22 04:49:52;;;;;;;41.03;27.15;;;7.30;99.90;;;;;;5099044;28;20023;-90
2022/04/22 04:52:18;;;;;;;38.78;26.83;;;7.40;99.90;;;;;;5098934;28;20114;-91
2022/04/22 04:54:46;;;;;;;38.33;27.83;;;7.40;99.90;;;;;;5099008;28;20359;-90
2022/04/22 04:57:11;;;;;;;38.55;26.23;;;7.40;99.90;;;;;;5099845;28;20019;-90
2022/04/22 04:59:37;;;;;;;38.95;27.40;;;7.40;99.90;;;;;;5099101;28;20485;-89
2022/04/22 05:02:03;;;;;;;36.47;26.52;;;7.50;99.90;;;;;;5099042;28;20026;-90
2022/04/22 05:04:28;;;;;;;36.22;26.27;;;7.60;99.90;;;;;;5098810;28;20050;-90
2022/04/22 05:06:54;;;;;;;41.72;28.80;;;7.70;99.90;;;;;;5098967;28;20371;-90
2022/04/22 05:09:20;;;;;;;34.72;25.20;;;7.70;99.90;;;;;;5098545;28;20057;-90
2022/04/22 05:11:45;;;;;;;37.72;26.27;;;7.80;99.90;;;;;;5098495;28;20032;-90
2022/04/22 05:14:11;;;;;;;38.25;25.98;;;7.90;99.90;;;;;;5098651;28;20031;-91
2022/04/22 05:16:37;;;;;;;38.40;26.77;;;8.00;99.90;;;;;;5098597;28;20024;-90
2022/04/22 05:19:02;;;;;;;34.28;25.10;;;8.10;99.90;;;;;;5098741;28;20507;-90
2022/04/22 05:21:28;;;;;;;34.40;25.95;;;8.20;99.90;;;;;;5098126;28;20389;-90
2022/04/22 05:23:55;;;;;;;36.25;25.00;;;8.30;99.90;;;;;;5098436;28;20026;-90
2022/04/22 05:26:23;;;;;;;34.60;24.42;;;8.40;99.90;;;;;;5098570;28;20027;-91
2022/04/22 05:28:49;;;;;;;38.15;26.10;;;8.50;99.90;;;;;;5116536;28;20039;-90
2022/04/22 05:33:59;;;;;;;33.45;23.98;;;8.70;99.90;;;;;;5116005;28;20508;-91
2022/04/22 05:36:24;;;;;;;31.95;23.35;;;8.80;99.90;;;;;;5098233;28;20031;-90
2022/04/22 05:38:52;;;;;;;34.15;24.83;;;8.90;99.90;;;;;;5098151;28;20084;-91
2022/04/22 05:41:18;;;;;;;31.52;24.10;;;9.10;99.90;;;;;;5098166;28;20023;-90
2022/04/22 05:43:44;;;;;;;34.10;25.58;;;9.20;99.90;;;;;;5098009;28;20077;-90
2022/04/22 05:46:10;;;;;;;33.55;24.05;;;9.20;99.90;;;;;;5097831;28;20028;-91
2022/04/22 05:48:36;;;;;;;33.28;25.08;;;9.20;99.90;;;;;;5097969;28;20023;-90
2022/04/22 05:51:01;;;;;;;31.60;23.52;;;9.20;99.90;;;;;;5097833;28;20066;-90
2022/04/22 05:53:28;;;;;;;32.15;22.67;;;9.30;99.90;;;;;;5097771;28;20020;-90
2022/04/22 05:55:54;;;;;;;31.58;22.45;;;9.30;99.90;;;;;;5098010;28;20024;-91
2022/04/22 05:58:19;;;;;;;33.05;23.08;;;9.40;99.90;;;;;;5098174;28;20458;-92
2022/04/22 06:00:45;;;;;;;33.28;23.73;;;9.50;99.90;;;;;;5097362;28;20038;-90
2022/04/22 06:03:11;;;;;;;31.52;22.85;;;9.50;99.90;;;;;;5097827;28;20024;-91
2022/04/22 06:05:36;;;;;;;29.90;22.77;;;9.50;99.90;;;;;;5097279;28;20029;-90
2022/04/22 06:10:51;;;;;;;31.80;21.08;;;9.70;99.90;;;;;;5115732;28;20030;-90
2022/04/22 06:13:17;;;;;;;28.02;21.27;;;9.80;99.90;;;;;;5097607;28;20382;-91
2022/04/22 06:15:43;;;;;;;27.35;20.92;;;9.80;99.90;;;;;;5097393;28;20115;-90
2022/04/22 06:18:09;;;;;;;26.45;20.95;;;9.90;99.90;;;;;;5097566;28;20074;-90
2022/04/22 06:20:35;;;;;;;26.98;20.23;;;10.00;99.90;;;;;;5097234;28;20458;-90
2022/04/22 06:23:01;;;;;;;25.52;20.83;;;10.10;99.90;;;;;;5097244;28;20030;-91
2022/04/22 06:25:28;;;;;;;26.52;19.55;;;10.20;99.90;;;;;;5097300;28;20028;-90
2022/04/22 06:27:54;;;;;;;26.88;20.52;;;10.40;99.90;;;;;;5097183;28;20035;-90
2022/04/22 06:30:21;;;;;;;26.80;20.35;;;10.60;99.90;;;;;;5097311;28;20031;-90
2022/04/22 06:32:49;;;;;;;26.83;20.25;;;10.80;99.90;;;;;;5115304;28;20036;-90
2022/04/22 06:35:18;;;;;;;25.50;19.48;;;10.90;99.90;;;;;;5115408;28;20016;-91
2022/04/22 06:37:49;;;;;;;21.48;18.20;;;10.90;99.90;;;;;;5097159;28;20108;-91
2022/04/22 06:45:48;;;;;;;24.27;18.42;;;11.20;99.90;;;;;;5114455;28;20022;-90
2022/04/22 06:48:29;;;;;;;22.50;18.10;;;11.30;99.90;;;;;;5096845;28;20080;-90
2022/04/22 06:50:56;;;;;;;21.67;17.30;;;11.50;99.90;;;;;;5096986;28;20398;-90
2022/04/22 06:53:22;;;;;;;25.30;18.48;;;11.50;99.90;;;;;;5096638;28;20027;-90
2022/04/22 06:55:49;;;;;;;23.25;16.88;;;11.60;99.90;;;;;;5097164;28;20023;-91
2022/04/22 06:58:18;;;;;;;21.10;16.85;;;11.70;99.90;;;;;;5114841;28;20016;-89
2022/04/22 07:00:45;;;;;;;22.35;17.33;;;11.70;99.90;;;;;;5097133;28;20027;-90
2022/04/22 07:03:12;;;;;;;20.33;16.88;;;11.80;99.90;;;;;;5097108;28;20518;-90
2022/04/22 07:05:39;;;;;;;24.30;17.65;;;11.90;99.90;;;;;;5114721;28;20470;-90
2022/04/22 07:08:07;;;;;;;24.25;19.42;;;12.00;99.90;;;;;;5096776;28;20027;-91
2022/04/22 07:10:34;;;;;;;22.02;18.08;;;12.00;99.90;;;;;;5096491;28;20366;-89
2022/04/22 07:13:00;;;;;;;21.13;17.33;;;12.20;99.90;;;;;;5096822;28;20106;-90
2022/04/22 07:15:27;;;;;;;22.10;16.73;;;12.30;99.90;;;;;;5096680;28;20058;-90
2022/04/22 07:17:53;;;;;;;22.85;17.52;;;12.40;99.90;;;;;;5114801;28;20024;-90
2022/04/22 07:20:20;;;;;;;22.80;17.27;;;12.40;99.90;;;;;;5096594;28;20028;-89
2022/04/22 07:22:46;;;;;;;23.73;17.80;;;12.50;99.90;;;;;;5096416;28;20462;-90
2022/04/22 07:25:12;;;;;;;19.63;16.27;;;12.60;99.90;;;;;;5114600;28;20107;-90
2022/04/22 07:27:44;;;;;;;21.17;16.92;;;12.70;99.90;;;;;;5096377;28;20543;-90
2022/04/22 07:30:14;;;;;;;18.77;15.52;;;12.80;99.90;;;;;;5114605;28;20509;-90
2022/04/22 07:32:41;;;;;;;17.38;15.02;;;13.00;99.90;;;;;;5096665;28;20055;-90
2022/04/22 07:35:12;;;;;;;18.48;15.48;;;13.20;99.90;;;;;;5096533;28;20027;-90
2022/04/22 07:37:48;;;;;;;20.85;15.48;;;13.30;99.90;;;;;;5096658;28;20472;-90
2022/04/22 07:40:16;;;;;;;22.83;16.17;;;13.50;99.90;;;;;;5096048;28;20123;-90
2022/04/22 07:46:46;;;;;;;19.85;16.05;;;13.60;99.90;;;;;;5096583;28;20024;-90
2022/04/22 07:48:18;;;;;;;17.90;13.68;;;13.90;99.90;;;;;;5114838;28;19911;-90
2022/04/22 07:50:46;;;;;;;16.13;11.27;;;14.10;99.80;;;;;;5096260;28;20051;-90
2022/04/22 07:53:12;;;;;;;12.40;11.10;;;14.10;99.70;;;;;;5096479;28;20023;-90
2022/04/22 07:55:38;;;;;;;17.55;11.38;;;14.30;98.70;;;;;;5096441;28;20430;-90
2022/04/22 07:58:05;;;;;;;13.98;11.95;;;14.40;97.90;;;;;;5099983;28;20028;-90
2022/04/22 08:00:31;;;;;;;13.20;11.38;;;14.40;97.40;;;;;;5117948;28;20458;-90
2022/04/22 08:02:57;;;;;;;13.00;11.52;;;14.30;96.90;;;;;;5099899;28;20034;-90
2022/04/22 08:05:23;;;;;;;11.93;10.60;;;14.40;97.10;;;;;;5118028;28;20020;-90
2022/04/22 08:07:48;;;;;;;13.98;12.20;;;14.40;96.70;;;;;;5100015;28;20035;-90
2022/04/22 08:10:14;;;;;;;15.15;13.07;;;14.50;97.20;;;;;;5118276;28;20486;-90
2022/04/22 08:12:40;;;;;;;17.85;12.63;;;14.70;97.50;;;;;;5118333;28;20026;-89
2022/04/22 08:15:05;;;;;;;20.17;13.20;;;14.80;97.30;;;;;;5118060;28;20035;-89
2022/04/22 08:17:38;;;;;;;17.33;12.30;;;15.00;96.80;;;;;;5117920;28;20056;-89
2022/04/22 08:20:05;;;;;;;13.48;10.63;;;15.10;95.90;;;;;;5099833;28;20031;-90
2022/04/22 08:22:30;;;;;;;13.60;11.50;;;15.20;95.40;;;;;;5099770;28;20054;-89
2022/04/22 08:24:57;;;;;;;12.18;10.75;;;15.20;95.20;;;;;;5099667;28;20063;-90
2022/04/22 08:27:24;;;;;;;12.48;10.60;;;15.30;94.50;;;;;;5099453;28;20038;-90
2022/04/22 08:29:50;;;;;;;11.05;9.90;;;15.30;94.40;;;;;;5099160;28;20043;-90
2022/04/22 08:32:15;;;;;;;13.00;10.73;;;15.20;94.00;;;;;;5117664;28;20073;-90
2022/04/22 08:34:41;;;;;;;11.77;10.18;;;15.20;94.00;;;;;;5117530;28;20106;-90
2022/04/22 08:37:07;;;;;;;12.13;10.15;;;15.20;93.70;;;;;;5099387;28;20114;-90
2022/04/22 08:39:33;;;;;;;13.35;10.25;;;15.30;94.00;;;;;;5117466;28;20024;-90
2022/04/22 08:42:01;;;;;;;11.98;10.10;;;15.40;93.60;;;;;;5117375;28;20019;-90
2022/04/22 08:44:29;;;;;;;15.05;11.23;;;15.50;93.20;;;;;;5117327;28;20022;-90
2022/04/22 08:52:25;;;;;;;10.73;9.63;;;15.50;92.80;;;;;;5117257;28;20026;-89
2022/04/22 08:54:53;;;;;;;11.80;9.77;;;15.40;93.00;;;;;;5117192;28;20026;-90
2022/04/22 08:57:21;;;;;;;12.25;10.98;;;15.40;92.70;;;;;;5099020;28;20453;-90
2022/04/22 08:59:47;;;;;;;12.70;11.35;;;15.30;92.00;;;;;;5099093;28;20474;-90
2022/04/22 09:02:22;;;;;;;11.52;10.32;;;14.90;92.10;;;;;;5098677;28;20035;-90
2022/04/22 09:04:47;;;;;;;11.73;10.48;;;14.80;92.80;;;;;;5116927;28;20012;-90
2022/04/22 09:07:14;;;;;;;14.68;11.15;;;14.70;92.90;;;;;;5116411;28;20026;-90
2022/04/22 09:09:44;;;;;;;24.75;14.75;;;14.50;93.40;;;;;;5116140;28;20076;-90
2022/04/22 09:12:11;;;;;;;19.67;14.43;;;14.40;93.10;;;;;;5098575;28;20061;-90
2022/04/22 09:14:46;;;;;;;25.83;14.02;;;14.40;93.30;;;;;;5098551;28;20040;-90
2022/04/22 09:17:22;;;;;;;28.13;16.20;;;14.30;93.20;;;;;;5098525;28;20020;-90
2022/04/22 09:19:48;;;;;;;21.42;15.95;;;14.20;93.70;;;;;;5098399;28;20032;-90
2022/04/22 09:22:29;;;;;;;20.42;14.35;;;14.10;94.20;;;;;;5098390;28;20024;-89
2022/04/22 09:24:56;;;;;;;18.92;14.90;;;14.00;94.20;;;;;;5116737;28;20431;-90
2022/04/22 09:27:37;;;;;;;14.40;12.52;;;14.00;94.20;;;;;;5098310;28;20023;-90
2022/04/22 09:30:07;;;;;;;18.27;13.57;;;14.20;94.00;;;;;;5098088;28;20044;-90
2022/04/22 09:32:35;;;;;;;21.77;13.80;;;14.20;94.30;;;;;;5116487;28;20020;-89
2022/04/22 09:35:10;;;;;;;15.07;12.10;;;14.20;94.40;;;;;;5098184;28;20474;-91
2022/04/22 09:43:47;;;;;;;14.23;11.48;;;14.10;93.60;;;;;;5116362;28;20054;-90
2022/04/22 09:46:27;;;;;;;13.48;10.43;;;13.90;93.80;;;;;;5097952;28;20020;-89
2022/04/22 09:48:54;;;;;;;;;;;13.80;93.90;;;;;;5098375;28;20023;-89
2022/04/22 09:51:24;;;;;;;12.10;10.43;;;13.60;93.60;;;;;;5097823;28;19904;-89
2022/04/22 09:54:14;;;;;;;16.20;12.88;;;13.50;94.00;;;;;;5115957;28;20024;-90
2022/04/22 09:56:55;;;;;;;16.08;12.55;;;13.60;93.70;;;;;;5115873;28;20023;-90
2022/04/22 09:59:26;;;;;;;19.27;16.10;;;13.60;94.20;;;;;;5097680;28;20073;-90
2022/04/22 10:01:52;;;;;;;15.25;12.38;;;13.70;94.30;;;;;;5097878;28;20030;-90
2022/04/22 10:04:20;;;;;;;21.85;14.45;;;13.90;94.00;;;;;;5115879;28;20054;-90
2022/04/22 10:06:46;;;;;;;34.03;16.52;;;14.10;93.10;;;;;;5097688;28;20026;-90
2022/04/22 10:09:16;;;;;;;35.35;16.13;;;14.30;92.10;;;;;;5097384;28;20020;-89
2022/04/22 10:11:44;;;;;;;36.60;16.65;;;14.40;92.60;;;;;;5115602;28;20098;-91
2022/04/22 10:14:11;;;;;;;35.38;15.63;;;14.70;91.80;;;;;;5097370;28;20036;-89
2022/04/22 10:16:38;;;;;;;31.58;14.80;;;14.90;91.10;;;;;;5115503;28;20023;-91
2022/04/22 10:19:07;;;;;;;31.10;14.82;;;15.30;90.30;;;;;;5097265;28;20027;-90
2022/04/22 10:21:34;;;;;;;32.53;14.18;;;15.50;88.80;;;;;;5115321;28;20020;-90
2022/04/22 10:24:00;;;;;;;26.20;11.82;;;15.60;89.40;;;;;;5097136;28;20031;-90
2022/04/22 10:26:26;;;;;;;19.20;9.50;;;15.70;88.70;;;;;;5097230;28;20072;-91
2022/04/22 10:28:53;;;;;;;14.02;9.35;;;15.80;86.30;;;;;;5097044;28;20122;-90
2022/04/22 10:31:21;;;;;;;15.43;8.50;;;15.80;86.60;;;;;;5097258;28;20031;-86
2022/04/22 10:33:47;;;;;;;12.68;8.80;;;15.80;85.50;;;;;;5114865;28;20108;-90
2022/04/22 10:36:17;;;;;;;12.45;9.02;;;15.80;86.20;;;;;;5115426;28;20024;-90
2022/04/22 10:38:50;;;;;;;12.93;8.80;;;15.90;85.80;;;;;;5097214;28;20466;-89
2022/04/22 10:41:22;;;;;;;12.80;9.13;;;16.00;85.70;;;;;;5115288;28;20038;-90
2022/04/22 10:47:13;;;;;;;11.90;9.13;;;16.10;84.50;;;;;;5096845;28;20462;-89
2022/04/22 10:49:40;;;;;;;10.75;9.30;;;16.20;85.00;;;;;;5115473;28;20042;-93
2022/04/22 10:52:13;;;;;;;14.23;9.98;;;16.30;84.20;;;;;;5096828;28;20073;-89
2022/04/22 10:55:05;;;;;;;10.65;8.65;;;16.10;84.60;;;;;;5096835;28;20050;-89
2022/04/22 10:57:33;;;;;;;14.90;10.05;;;16.00;84.90;;;;;;5114809;28;20027;-89
2022/04/22 11:00:09;;;;;;;13.77;10.05;;;15.90;85.10;;;;;;5096684;28;20482;-89
2022/04/22 11:02:37;;;;;;;17.00;11.38;;;15.70;85.60;;;;;;5096802;28;20027;-89
2022/04/22 11:07:53;;;;;;;16.52;10.77;;;15.60;87.60;;;;;;5114634;28;20028;-89
2022/04/22 11:10:20;;;;;;;13.10;10.50;;;15.70;88.10;;;;;;5114670;28;20023;-90
2022/04/22 11:12:59;;;;;;;18.75;11.90;;;15.70;87.40;;;;;;5096668;28;20024;-90
2022/04/22 11:15:43;;;;;;;16.15;10.20;;;15.60;87.50;;;;;;5096673;28;20110;-91
2022/04/22 11:18:10;;;;;;;16.77;11.20;;;15.60;88.20;;;;;;5096831;28;20024;-90
2022/04/22 11:20:43;;;;;;;20.00;12.10;;;15.50;88.80;;;;;;5114829;28;20042;-90
2022/04/22 11:23:15;;;;;;;25.17;13.13;;;15.40;89.00;;;;;;5096538;28;20470;-89
2022/04/22 11:25:43;;;;;;;19.08;13.48;;;15.30;89.10;;;;;;5096332;28;20024;-90
2022/04/22 11:28:09;;;;;;;17.77;11.60;;;15.30;88.60;;;;;;5096233;28;20085;-89
2022/04/22 11:30:35;;;;;;;15.77;10.82;;;15.30;88.60;;;;;;5096624;28;20016;-89
2022/04/22 11:33:25;;;;;;;11.25;10.02;;;15.30;88.00;;;;;;5100415;28;20028;-89
2022/04/22 11:36:01;;;;;;;18.70;12.05;;;15.30;88.00;;;;;;5100583;28;20378;-90
2022/04/22 11:38:28;;;;;;;13.93;12.40;;;15.30;87.70;;;;;;5100548;28;20466;-90
2022/04/22 11:40:54;;;;;;;21.30;14.77;;;15.50;87.50;;;;;;5100388;28;20127;-90
2022/04/22 11:43:21;;;;;;;24.20;16.95;;;15.40;87.90;;;;;;5118386;28;20055;-89
2022/04/22 11:45:49;;;;;;;18.52;15.02;;;15.30;88.30;;;;;;5100304;28;20561;-90
2022/04/22 11:48:18;;;;;;;16.00;13.95;;;15.20;88.40;;;;;;5118290;28;20095;-90
2022/04/22 11:50:46;;;;;;;19.92;15.30;;;15.20;89.20;;;;;;5100231;28;20508;-89
2022/04/22 11:53:15;;;;;;;20.10;16.70;;;15.10;89.90;;;;;;5100294;28;20070;-89
2022/04/22 11:55:42;;;;;;;21.85;16.20;;;15.00;90.10;;;;;;5100204;28;20023;-90
2022/04/22 11:58:12;;;;;;;27.10;18.55;;;14.90;90.60;;;;;;5100284;28;20084;-89
2022/04/22 12:06:15;;;;;;;26.77;18.45;;;14.90;90.80;;;;;;5118305;28;20077;-89
2022/04/22 12:09:01;;;;;;;22.55;15.90;;;14.70;91.20;;;;;;5099991;28;20020;-89
2022/04/22 12:11:27;;;;;;;20.17;15.07;;;14.80;92.00;;;;;;5118079;28;20111;-91
2022/04/22 12:13:54;;;;;;;20.63;16.38;;;15.00;92.00;;;;;;5118011;28;20111;-92
2022/04/22 12:16:21;;;;;;;28.25;16.95;;;15.30;91.50;;;;;;5099776;28;20027;-90
2022/04/22 12:18:50;;;;;;;23.25;16.77;;;15.50;91.40;;;;;;5099636;28;20024;-91
2022/04/22 12:21:18;;;;;;;25.88;18.48;;;15.70;91.40;;;;;;5099569;28;20023;-91
2022/04/22 12:23:46;;;;;;;22.80;15.48;;;15.90;91.10;;;;;;5099802;28;20028;-91
2022/04/22 12:26:23;;;;;;;24.27;15.77;;;16.10;90.30;;;;;;5099411;28;20020;-90
2022/04/22 12:28:55;;;;;;;23.83;15.52;;;16.20;89.90;;;;;;5099426;28;20127;-91
2022/04/22 12:31:22;;;;;;;25.08;16.23;;;16.30;90.10;;;;;;5099693;28;20020;-91
2022/04/22 12:34:00;;;;;;;20.90;14.63;;;16.50;89.90;;;;;;5099513;28;20550;-90
2022/04/22 12:36:26;;;;;;;20.40;14.35;;;16.80;89.60;;;;;;5117689;28;20027;-90
2022/04/22 12:38:52;;;;;;;23.98;15.20;;;17.20;88.90;;;;;;5099324;28;20024;-90
2022/04/22 12:41:20;;;;;;;24.63;16.65;;;17.60;87.30;;;;;;5099194;28;20496;-90
2022/04/22 12:43:47;;;;;;;34.13;16.92;;;17.70;84.80;;;;;;5097968;28;20080;-90
2022/04/22 12:52:23;;;;;;;17.48;13.82;;;17.50;83.30;;;;;;5117541;28;20035;-90
2022/04/22 12:54:49;;;;;;;21.65;14.70;;;17.70;82.30;;;;;;5099008;28;20370;-90
2022/04/22 12:57:23;;;;;;;20.63;16.02;;;18.10;82.80;;;;;;5099084;28;20037;-91
2022/04/22 12:59:54;;;;;;;24.08;14.82;;;18.30;80.80;;;;;;5099120;28;20028;-88
2022/04/22 13:02:35;;;;;;;21.17;14.15;;;18.00;79.20;;;;;;5098549;28;20035;-90
2022/04/22 13:05:03;;;;;;;24.75;13.55;;;17.80;78.70;;;;;;5098852;28;20027;-90
2022/04/22 13:07:41;;;;;;;24.23;13.75;;;17.60;79.40;;;;;;5098651;28;20023;-89
2022/04/22 13:10:10;;;;;;;24.70;14.23;;;17.30;79.90;;;;;;5098684;28;20031;-89
2022/04/22 13:12:39;;;;;;;21.85;14.05;;;16.80;80.80;;;;;;5098936;28;20027;-89
2022/04/22 13:15:09;;;;;;;20.77;13.85;;;16.50;82.30;;;;;;5116495;28;20063;-90
2022/04/22 13:17:40;;;;;;;18.20;12.98;;;16.10;83.40;;;;;;5098892;28;20023;-90
2022/04/22 13:20:07;;;;;;;25.85;15.25;;;15.90;84.40;;;;;;5098594;28;20028;-89
2022/04/22 13:22:34;;;;;;;21.25;14.02;;;15.70;84.90;;;;;;5098593;28;20027;-91
2022/04/22 13:24:59;;;;;;;22.52;14.20;;;15.50;85.70;;;;;;5098620;28;20069;-90
2022/04/22 13:27:25;;;;;;;19.63;14.13;;;15.40;86.30;;;;;;5098383;28;20019;-89
2022/04/22 13:29:51;;;;;;;20.45;14.02;;;15.30;86.90;;;;;;5098140;28;20036;-89
2022/04/22 13:32:16;;;;;;;24.38;15.02;;;15.20;87.50;;;;;;5098279;28;20076;-89
2022/04/22 13:34:42;;;;;;;25.70;15.38;;;15.20;87.50;;;;;;5098310;28;20114;-89
2022/04/22 13:37:09;;;;;;;25.77;14.75;;;15.30;87.90;;;;;;5098331;28;20023;-89
2022/04/22 13:39:35;;;;;;;25.45;15.02;;;15.30;88.40;;;;;;5115322;28;20039;-89
2022/04/22 13:42:01;;;;;;;30.80;15.77;;;15.50;88.60;;;;;;5097504;28;20024;-89
2022/04/22 13:52:39;;;;;;;20.55;13.77;;;16.70;85.20;;;;;;5116456;28;20042;-89
2022/04/22 13:55:05;;;;;;;24.48;14.55;;;17.00;84.70;;;;;;5097657;28;20027;-89
2022/04/22 13:57:30;;;;;;;20.90;12.75;;;17.10;85.30;;;;;;5097530;28;20077;-88